sensor_id;sensor_type;location;lat;lon;timestamp;P1;durP1;ratioP1;P2;durP2;ratioP2
15889;SDS011;8043;49.388;12.128;2023-10-09T00:02:52;2.27;;;1.85;;
15889;SDS011;8043;49.388;12.128;2023-10-09T00:07:55;4.92;;;1.60;;
15889;SDS011;8043;49.388;12.128;2023-10-09T00:12:58;1.52;;;1.42;;
15889;SDS011;8043;49.388;12.128;2023-10-09T00:18:00;3.30;;;1.90;;
15889;SDS011;8043;49.388;12.128;2023-10-09T00:23:06;1.85;;;1.52;;
15889;SDS011;8043;49.388;12.128;2023-10-09T00:28:10;2.75;;;1.47;;
15889;SDS011;8043;49.388;12.128;2023-10-09T00:33:13;1.85;;;1.42;;
15889;SDS011;8043;49.388;12.128;2023-10-09T00:38:16;1.80;;;1.53;;
15889;SDS011;8043;49.388;12.128;2023-10-09T00:43:23;4.70;;;1.70;;
15889;SDS011;8043;49.388;12.128;2023-10-09T00:48:27;2.30;;;1.55;;
15889;SDS011;8043;49.388;12.128;2023-10-09T00:53:34;4.78;;;2.00;;
15889;SDS011;8043;49.388;12.128;2023-10-09T01:08:42;2.25;;;1.65;;
15889;SDS011;8043;49.388;12.128;2023-10-09T01:13:47;1.60;;;1.32;;
15889;SDS011;8043;49.388;12.128;2023-10-09T01:18:54;2.52;;;1.70;;
15889;SDS011;8043;49.388;12.128;2023-10-09T01:24:00;1.62;;;1.50;;
15889;SDS011;8043;49.388;12.128;2023-10-09T01:29:05;1.32;;;1.22;;
15889;SDS011;8043;49.388;12.128;2023-10-09T01:34:12;1.55;;;1.42;;
15889;SDS011;8043;49.388;12.128;2023-10-09T01:39:24;2.60;;;1.47;;
15889;SDS011;8043;49.388;12.128;2023-10-09T01:44:34;2.45;;;1.42;;
15889;SDS011;8043;49.388;12.128;2023-10-09T01:49:38;3.90;;;1.67;;
15889;SDS011;8043;49.388;12.128;2023-10-09T01:54:45;2.35;;;1.40;;
15889;SDS011;8043;49.388;12.128;2023-10-09T01:59:51;8.55;;;1.72;;
15889;SDS011;8043;49.388;12.128;2023-10-09T02:05:04;1.45;;;1.12;;
15889;SDS011;8043;49.388;12.128;2023-10-09T02:10:11;1.47;;;1.37;;
15889;SDS011;8043;49.388;12.128;2023-10-09T02:15:32;1.37;;;1.27;;
15889;SDS011;8043;49.388;12.128;2023-10-09T02:20:47;1.90;;;1.70;;
15889;SDS011;8043;49.388;12.128;2023-10-09T02:26:05;1.32;;;1.22;;
15889;SDS011;8043;49.388;12.128;2023-10-09T02:31:12;3.12;;;1.20;;
15889;SDS011;8043;49.388;12.128;2023-10-09T02:36:16;2.60;;;2.15;;
15889;SDS011;8043;49.388;12.128;2023-10-09T02:41:18;2.65;;;1.20;;
15889;SDS011;8043;49.388;12.128;2023-10-09T02:46:21;3.50;;;1.42;;
15889;SDS011;8043;49.388;12.128;2023-10-09T02:51:34;3.70;;;2.30;;
15889;SDS011;8043;49.388;12.128;2023-10-09T02:56:38;1.92;;;1.72;;
15889;SDS011;8043;49.388;12.128;2023-10-09T03:01:42;2.72;;;2.30;;
15889;SDS011;8043;49.388;12.128;2023-10-09T03:06:45;3.95;;;2.10;;
15889;SDS011;8043;49.388;12.128;2023-10-09T03:11:55;5.15;;;2.17;;
15889;SDS011;8043;49.388;12.128;2023-10-09T03:17:07;5.60;;;2.47;;
15889;SDS011;8043;49.388;12.128;2023-10-09T03:22:11;3.00;;;2.17;;
15889;SDS011;8043;49.388;12.128;2023-10-09T03:32:16;2.73;;;2.07;;
15889;SDS011;8043;49.388;12.128;2023-10-09T03:37:20;3.72;;;2.25;;
15889;SDS011;8043;49.388;12.128;2023-10-09T03:42:24;2.90;;;1.77;;
15889;SDS011;8043;49.388;12.128;2023-10-09T03:47:26;2.70;;;2.05;;
15889;SDS011;8043;49.388;12.128;2023-10-09T03:52:30;5.00;;;2.70;;
15889;SDS011;8043;49.388;12.128;2023-10-09T03:57:32;3.60;;;2.27;;
15889;SDS011;8043;49.388;12.128;2023-10-09T04:02:34;5.95;;;3.30;;
15889;SDS011;8043;49.388;12.128;2023-10-09T04:07:37;4.08;;;2.77;;
15889;SDS011;8043;49.388;12.128;2023-10-09T04:17:42;2.37;;;2.00;;
15889;SDS011;8043;49.388;12.128;2023-10-09T04:22:45;4.30;;;2.40;;
15889;SDS011;8043;49.388;12.128;2023-10-09T04:27:55;3.10;;;1.80;;
15889;SDS011;8043;49.388;12.128;2023-10-09T04:33:17;2.98;;;1.82;;
15889;SDS011;8043;49.388;12.128;2023-10-09T04:38:36;2.05;;;1.62;;
15889;SDS011;8043;49.388;12.128;2023-10-09T04:48:42;1.57;;;1.32;;
15889;SDS011;8043;49.388;12.128;2023-10-09T04:53:47;2.22;;;1.77;;
15889;SDS011;8043;49.388;12.128;2023-10-09T04:58:51;2.22;;;1.92;;
15889;SDS011;8043;49.388;12.128;2023-10-09T05:03:55;3.00;;;1.95;;
15889;SDS011;8043;49.388;12.128;2023-10-09T05:08:59;3.55;;;2.22;;
15889;SDS011;8043;49.388;12.128;2023-10-09T05:14:03;9.35;;;2.05;;
15889;SDS011;8043;49.388;12.128;2023-10-09T05:19:15;4.87;;;2.00;;
15889;SDS011;8043;49.388;12.128;2023-10-09T05:24:35;4.65;;;2.52;;
15889;SDS011;8043;49.388;12.128;2023-10-09T05:29:47;2.33;;;1.67;;
15889;SDS011;8043;49.388;12.128;2023-10-09T05:34:51;5.33;;;2.15;;
15889;SDS011;8043;49.388;12.128;2023-10-09T05:40:02;6.08;;;2.02;;
15889;SDS011;8043;49.388;12.128;2023-10-09T05:45:19;2.25;;;2.05;;
15889;SDS011;8043;49.388;12.128;2023-10-09T05:50:39;2.83;;;2.30;;
15889;SDS011;8043;49.388;12.128;2023-10-09T05:56:01;4.43;;;3.23;;
15889;SDS011;8043;49.388;12.128;2023-10-09T06:01:21;3.52;;;2.80;;
15889;SDS011;8043;49.388;12.128;2023-10-09T06:06:42;5.17;;;2.22;;
15889;SDS011;8043;49.388;12.128;2023-10-09T06:11:49;3.45;;;2.15;;
15889;SDS011;8043;49.388;12.128;2023-10-09T06:16:57;5.25;;;2.50;;
15889;SDS011;8043;49.388;12.128;2023-10-09T06:22:04;6.95;;;3.40;;
15889;SDS011;8043;49.388;12.128;2023-10-09T06:27:24;11.83;;;3.35;;
15889;SDS011;8043;49.388;12.128;2023-10-09T06:32:28;4.60;;;2.55;;
15889;SDS011;8043;49.388;12.128;2023-10-09T06:37:35;3.65;;;2.25;;
15889;SDS011;8043;49.388;12.128;2023-10-09T06:42:39;4.95;;;2.42;;
15889;SDS011;8043;49.388;12.128;2023-10-09T06:47:48;4.58;;;3.12;;
15889;SDS011;8043;49.388;12.128;2023-10-09T06:52:56;3.40;;;2.35;;
15889;SDS011;8043;49.388;12.128;2023-10-09T06:58:01;5.58;;;2.98;;
15889;SDS011;8043;49.388;12.128;2023-10-09T07:03:05;9.03;;;3.00;;
15889;SDS011;8043;49.388;12.128;2023-10-09T07:08:09;5.95;;;3.67;;
15889;SDS011;8043;49.388;12.128;2023-10-09T07:13:13;9.23;;;4.28;;
15889;SDS011;8043;49.388;12.128;2023-10-09T07:18:17;8.50;;;4.10;;
15889;SDS011;8043;49.388;12.128;2023-10-09T07:23:24;10.35;;;4.90;;
15889;SDS011;8043;49.388;12.128;2023-10-09T07:28:28;7.00;;;3.87;;
15889;SDS011;8043;49.388;12.128;2023-10-09T07:33:32;8.03;;;3.77;;
15889;SDS011;8043;49.388;12.128;2023-10-09T07:38:36;5.90;;;3.52;;
15889;SDS011;8043;49.388;12.128;2023-10-09T07:43:42;10.47;;;4.03;;
15889;SDS011;8043;49.388;12.128;2023-10-09T07:48:46;6.53;;;3.90;;
15889;SDS011;8043;49.388;12.128;2023-10-09T07:53:54;8.30;;;3.85;;
15889;SDS011;8043;49.388;12.128;2023-10-09T07:59:09;13.18;;;4.58;;
15889;SDS011;8043;49.388;12.128;2023-10-09T08:19:25;7.30;;;3.33;;
15889;SDS011;8043;49.388;12.128;2023-10-09T08:24:37;13.93;;;4.62;;
15889;SDS011;8043;49.388;12.128;2023-10-09T08:29:44;7.55;;;3.50;;
15889;SDS011;8043;49.388;12.128;2023-10-09T08:34:50;15.32;;;3.15;;
15889;SDS011;8043;49.388;12.128;2023-10-09T08:39:54;8.20;;;3.45;;
15889;SDS011;8043;49.388;12.128;2023-10-09T08:44:56;15.95;;;2.95;;
15889;SDS011;8043;49.388;12.128;2023-10-09T08:50:01;12.65;;;3.25;;
15889;SDS011;8043;49.388;12.128;2023-10-09T09:00:06;7.83;;;2.50;;
15889;SDS011;8043;49.388;12.128;2023-10-09T09:05:17;11.43;;;3.17;;
15889;SDS011;8043;49.388;12.128;2023-10-09T09:10:29;9.25;;;3.10;;
15889;SDS011;8043;49.388;12.128;2023-10-09T09:15:39;7.65;;;2.90;;
15889;SDS011;8043;49.388;12.128;2023-10-09T09:20:42;11.15;;;3.55;;
15889;SDS011;8043;49.388;12.128;2023-10-09T09:25:47;9.75;;;2.72;;
15889;SDS011;8043;49.388;12.128;2023-10-09T09:30:52;9.55;;;2.30;;
15889;SDS011;8043;49.388;12.128;2023-10-09T09:35:59;8.93;;;2.90;;
15889;SDS011;8043;49.388;12.128;2023-10-09T09:41:04;11.85;;;2.50;;
15889;SDS011;8043;49.388;12.128;2023-10-09T09:46:08;4.97;;;2.45;;
15889;SDS011;8043;49.388;12.128;2023-10-09T09:51:12;7.47;;;2.37;;
15889;SDS011;8043;49.388;12.128;2023-10-09T09:56:16;21.20;;;3.20;;
15889;SDS011;8043;49.388;12.128;2023-10-09T10:01:31;6.95;;;2.42;;
15889;SDS011;8043;49.388;12.128;2023-10-09T10:06:36;9.00;;;2.45;;
15889;SDS011;8043;49.388;12.128;2023-10-09T10:11:44;4.05;;;2.20;;
15889;SDS011;8043;49.388;12.128;2023-10-09T10:17:02;8.68;;;2.00;;
15889;SDS011;8043;49.388;12.128;2023-10-09T10:22:25;8.88;;;2.62;;
15889;SDS011;8043;49.388;12.128;2023-10-09T10:27:30;8.20;;;2.83;;
15889;SDS011;8043;49.388;12.128;2023-10-09T10:38:01;6.00;;;2.72;;
15889;SDS011;8043;49.388;12.128;2023-10-09T10:43:20;8.88;;;3.27;;
15889;SDS011;8043;49.388;12.128;2023-10-09T10:48:42;10.28;;;3.45;;
15889;SDS011;8043;49.388;12.128;2023-10-09T10:53:53;8.50;;;3.17;;
15889;SDS011;8043;49.388;12.128;2023-10-09T10:58:57;9.05;;;3.27;;
15889;SDS011;8043;49.388;12.128;2023-10-09T11:04:11;14.30;;;2.98;;
15889;SDS011;8043;49.388;12.128;2023-10-09T11:09:14;7.40;;;2.98;;
15889;SDS011;8043;49.388;12.128;2023-10-09T11:14:22;11.53;;;3.60;;
15889;SDS011;8043;49.388;12.128;2023-10-09T11:19:25;9.78;;;3.35;;
15889;SDS011;8043;49.388;12.128;2023-10-09T11:24:35;8.58;;;3.90;;
15889;SDS011;8043;49.388;12.128;2023-10-09T11:29:37;6.93;;;3.60;;
15889;SDS011;8043;49.388;12.128;2023-10-09T11:35:29;8.05;;;3.05;;
15889;SDS011;8043;49.388;12.128;2023-10-09T11:40:33;4.28;;;2.98;;
15889;SDS011;8043;49.388;12.128;2023-10-09T11:45:37;10.60;;;2.77;;
15889;SDS011;8043;49.388;12.128;2023-10-09T11:50:40;11.55;;;3.98;;
15889;SDS011;8043;49.388;12.128;2023-10-09T11:55:44;14.98;;;3.08;;
15889;SDS011;8043;49.388;12.128;2023-10-09T12:00:59;7.37;;;3.17;;
15889;SDS011;8043;49.388;12.128;2023-10-09T12:06:05;6.22;;;2.47;;
15889;SDS011;8043;49.388;12.128;2023-10-09T12:11:15;11.50;;;3.00;;
15889;SDS011;8043;49.388;12.128;2023-10-09T12:16:26;14.13;;;3.22;;
15889;SDS011;8043;49.388;12.128;2023-10-09T12:21:30;16.67;;;2.50;;
15889;SDS011;8043;49.388;12.128;2023-10-09T12:26:32;7.65;;;2.30;;
15889;SDS011;8043;49.388;12.128;2023-10-09T12:31:35;9.23;;;3.17;;
15889;SDS011;8043;49.388;12.128;2023-10-09T12:41:39;8.88;;;3.60;;
15889;SDS011;8043;49.388;12.128;2023-10-09T12:51:45;14.03;;;3.10;;
15889;SDS011;8043;49.388;12.128;2023-10-09T12:56:48;6.05;;;2.40;;
15889;SDS011;8043;49.388;12.128;2023-10-09T13:01:51;7.92;;;1.80;;
15889;SDS011;8043;49.388;12.128;2023-10-09T13:06:55;7.62;;;2.75;;
15889;SDS011;8043;49.388;12.128;2023-10-09T13:12:01;9.45;;;2.42;;
15889;SDS011;8043;49.388;12.128;2023-10-09T13:17:05;6.95;;;2.80;;
15889;SDS011;8043;49.388;12.128;2023-10-09T13:22:10;5.37;;;2.40;;
15889;SDS011;8043;49.388;12.128;2023-10-09T13:27:17;10.23;;;3.30;;
15889;SDS011;8043;49.388;12.128;2023-10-09T13:32:22;9.28;;;3.33;;
15889;SDS011;8043;49.388;12.128;2023-10-09T13:37:25;8.10;;;3.65;;
15889;SDS011;8043;49.388;12.128;2023-10-09T13:42:28;7.53;;;2.40;;
15889;SDS011;8043;49.388;12.128;2023-10-09T13:47:30;9.53;;;2.62;;
15889;SDS011;8043;49.388;12.128;2023-10-09T13:52:34;9.95;;;2.70;;
15889;SDS011;8043;49.388;12.128;2023-10-09T13:57:42;4.08;;;2.20;;
15889;SDS011;8043;49.388;12.128;2023-10-09T14:02:45;10.70;;;2.40;;
15889;SDS011;8043;49.388;12.128;2023-10-09T14:07:50;12.33;;;5.12;;
15889;SDS011;8043;49.388;12.128;2023-10-09T14:12:53;13.28;;;3.02;;
15889;SDS011;8043;49.388;12.128;2023-10-09T14:17:57;23.47;;;3.20;;
15889;SDS011;8043;49.388;12.128;2023-10-09T14:23:01;11.45;;;3.15;;
15889;SDS011;8043;49.388;12.128;2023-10-09T14:28:11;6.45;;;2.75;;
15889;SDS011;8043;49.388;12.128;2023-10-09T14:33:15;10.82;;;2.60;;
15889;SDS011;8043;49.388;12.128;2023-10-09T14:38:19;11.55;;;2.45;;
15889;SDS011;8043;49.388;12.128;2023-10-09T14:43:23;10.85;;;2.58;;
15889;SDS011;8043;49.388;12.128;2023-10-09T14:48:30;10.32;;;2.35;;
15889;SDS011;8043;49.388;12.128;2023-10-09T14:53:34;7.92;;;3.22;;
15889;SDS011;8043;49.388;12.128;2023-10-09T15:03:39;7.37;;;2.90;;
15889;SDS011;8043;49.388;12.128;2023-10-09T15:08:42;9.15;;;1.95;;
15889;SDS011;8043;49.388;12.128;2023-10-09T15:13:47;5.50;;;2.25;;
15889;SDS011;8043;49.388;12.128;2023-10-09T15:18:49;16.02;;;3.37;;
15889;SDS011;8043;49.388;12.128;2023-10-09T15:23:54;7.03;;;2.85;;
15889;SDS011;8043;49.388;12.128;2023-10-09T15:28:57;8.95;;;3.37;;
15889;SDS011;8043;49.388;12.128;2023-10-09T15:34:03;14.70;;;2.52;;
15889;SDS011;8043;49.388;12.128;2023-10-09T15:39:07;9.30;;;2.40;;
15889;SDS011;8043;49.388;12.128;2023-10-09T15:44:11;11.88;;;3.75;;
15889;SDS011;8043;49.388;12.128;2023-10-09T15:49:15;8.55;;;2.47;;
15889;SDS011;8043;49.388;12.128;2023-10-09T15:54:18;13.03;;;3.87;;
15889;SDS011;8043;49.388;12.128;2023-10-09T16:04:22;7.87;;;3.22;;
15889;SDS011;8043;49.388;12.128;2023-10-09T16:09:25;10.65;;;2.85;;
15889;SDS011;8043;49.388;12.128;2023-10-09T16:14:29;17.67;;;4.87;;
15889;SDS011;8043;49.388;12.128;2023-10-09T16:19:32;12.82;;;4.10;;
15889;SDS011;8043;49.388;12.128;2023-10-09T16:24:35;11.27;;;3.70;;
15889;SDS011;8043;49.388;12.128;2023-10-09T16:29:38;11.95;;;3.62;;
15889;SDS011;8043;49.388;12.128;2023-10-09T16:34:41;13.20;;;2.80;;
15889;SDS011;8043;49.388;12.128;2023-10-09T16:39:44;8.85;;;2.75;;
15889;SDS011;8043;49.388;12.128;2023-10-09T16:44:47;9.97;;;2.73;;
15889;SDS011;8043;49.388;12.128;2023-10-09T16:49:49;13.43;;;2.90;;
15889;SDS011;8043;49.388;12.128;2023-10-09T16:54:52;16.73;;;2.92;;
15889;SDS011;8043;49.388;12.128;2023-10-09T16:59:55;6.83;;;3.00;;
15889;SDS011;8043;49.388;12.128;2023-10-09T17:04:58;8.00;;;2.72;;
15889;SDS011;8043;49.388;12.128;2023-10-09T17:10:02;10.68;;;2.55;;
15889;SDS011;8043;49.388;12.128;2023-10-09T17:15:07;9.50;;;2.90;;
15889;SDS011;8043;49.388;12.128;2023-10-09T17:20:16;13.62;;;3.08;;
15889;SDS011;8043;49.388;12.128;2023-10-09T17:25:19;9.78;;;3.33;;
15889;SDS011;8043;49.388;12.128;2023-10-09T17:30:24;15.15;;;3.77;;
15889;SDS011;8043;49.388;12.128;2023-10-09T17:35:28;18.25;;;5.28;;
15889;SDS011;8043;49.388;12.128;2023-10-09T17:40:32;18.80;;;6.25;;
15889;SDS011;8043;49.388;12.128;2023-10-09T17:45:36;17.42;;;4.87;;
15889;SDS011;8043;49.388;12.128;2023-10-09T17:50:43;17.90;;;6.92;;
15889;SDS011;8043;49.388;12.128;2023-10-09T17:55:46;18.95;;;7.65;;
15889;SDS011;8043;49.388;12.128;2023-10-09T18:00:55;28.92;;;7.60;;
15889;SDS011;8043;49.388;12.128;2023-10-09T18:06:02;15.98;;;6.62;;
15889;SDS011;8043;49.388;12.128;2023-10-09T18:11:04;22.10;;;7.80;;
15889;SDS011;8043;49.388;12.128;2023-10-09T18:16:07;26.20;;;9.80;;
15889;SDS011;8043;49.388;12.128;2023-10-09T18:21:13;27.00;;;10.25;;
15889;SDS011;8043;49.388;12.128;2023-10-09T18:26:17;113.15;;;44.65;;
15889;SDS011;8043;49.388;12.128;2023-10-09T18:31:20;57.40;;;20.80;;
15889;SDS011;8043;49.388;12.128;2023-10-09T18:36:22;28.12;;;10.78;;
15889;SDS011;8043;49.388;12.128;2023-10-09T18:41:27;22.32;;;9.30;;
15889;SDS011;8043;49.388;12.128;2023-10-09T18:46:29;18.12;;;7.70;;
15889;SDS011;8043;49.388;12.128;2023-10-09T18:51:32;18.62;;;7.08;;
15889;SDS011;8043;49.388;12.128;2023-10-09T18:56:35;17.62;;;7.80;;
15889;SDS011;8043;49.388;12.128;2023-10-09T19:01:37;25.20;;;7.25;;
15889;SDS011;8043;49.388;12.128;2023-10-09T19:06:40;18.50;;;7.40;;
15889;SDS011;8043;49.388;12.128;2023-10-09T19:16:44;10.00;;;5.17;;
15889;SDS011;8043;49.388;12.128;2023-10-09T19:21:47;24.02;;;7.12;;
15889;SDS011;8043;49.388;12.128;2023-10-09T19:26:49;16.73;;;5.87;;
15889;SDS011;8043;49.388;12.128;2023-10-09T19:31:52;15.98;;;6.87;;
15889;SDS011;8043;49.388;12.128;2023-10-09T19:36:54;14.15;;;6.58;;
15889;SDS011;8043;49.388;12.128;2023-10-09T19:41:57;15.28;;;6.30;;
15889;SDS011;8043;49.388;12.128;2023-10-09T19:46:59;13.68;;;6.60;;
15889;SDS011;8043;49.388;12.128;2023-10-09T19:52:02;11.88;;;5.35;;
15889;SDS011;8043;49.388;12.128;2023-10-09T19:57:06;15.95;;;6.60;;
15889;SDS011;8043;49.388;12.128;2023-10-09T20:02:09;17.37;;;6.30;;
15889;SDS011;8043;49.388;12.128;2023-10-09T20:07:13;17.65;;;7.87;;
15889;SDS011;8043;49.388;12.128;2023-10-09T20:12:15;16.65;;;6.45;;
15889;SDS011;8043;49.388;12.128;2023-10-09T20:17:19;27.73;;;7.28;;
15889;SDS011;8043;49.388;12.128;2023-10-09T20:22:22;12.03;;;6.35;;
15889;SDS011;8043;49.388;12.128;2023-10-09T20:27:24;19.10;;;5.95;;
15889;SDS011;8043;49.388;12.128;2023-10-09T20:32:28;24.95;;;6.97;;
15889;SDS011;8043;49.388;12.128;2023-10-09T20:37:32;24.90;;;9.23;;
15889;SDS011;8043;49.388;12.128;2023-10-09T20:42:34;18.32;;;6.83;;
15889;SDS011;8043;49.388;12.128;2023-10-09T20:47:45;20.17;;;7.17;;
15889;SDS011;8043;49.388;12.128;2023-10-09T20:52:50;22.02;;;7.80;;
15889;SDS011;8043;49.388;12.128;2023-10-09T20:57:53;26.48;;;8.23;;
15889;SDS011;8043;49.388;12.128;2023-10-09T21:02:59;23.67;;;7.20;;
15889;SDS011;8043;49.388;12.128;2023-10-09T21:13:03;15.85;;;6.83;;
15889;SDS011;8043;49.388;12.128;2023-10-09T21:18:07;18.60;;;6.60;;
15889;SDS011;8043;49.388;12.128;2023-10-09T21:23:10;13.13;;;5.83;;
15889;SDS011;8043;49.388;12.128;2023-10-09T21:28:12;14.20;;;5.12;;
15889;SDS011;8043;49.388;12.128;2023-10-09T21:33:14;15.23;;;5.60;;
15889;SDS011;8043;49.388;12.128;2023-10-09T21:38:17;15.00;;;5.72;;
15889;SDS011;8043;49.388;12.128;2023-10-09T21:43:19;17.52;;;5.97;;
15889;SDS011;8043;49.388;12.128;2023-10-09T21:48:22;14.58;;;5.20;;
15889;SDS011;8043;49.388;12.128;2023-10-09T21:53:25;10.45;;;4.20;;
15889;SDS011;8043;49.388;12.128;2023-10-09T22:03:30;8.13;;;4.13;;
15889;SDS011;8043;49.388;12.128;2023-10-09T22:08:32;11.68;;;4.70;;
15889;SDS011;8043;49.388;12.128;2023-10-09T22:13:35;16.15;;;5.58;;
15889;SDS011;8043;49.388;12.128;2023-10-09T22:18:37;17.67;;;5.92;;
15889;SDS011;8043;49.388;12.128;2023-10-09T22:23:44;11.10;;;5.00;;
15889;SDS011;8043;49.388;12.128;2023-10-09T22:28:49;11.10;;;4.37;;
15889;SDS011;8043;49.388;12.128;2023-10-09T22:33:51;14.33;;;4.35;;
15889;SDS011;8043;49.388;12.128;2023-10-09T22:38:54;9.95;;;4.78;;
15889;SDS011;8043;49.388;12.128;2023-10-09T22:43:57;6.50;;;3.87;;
15889;SDS011;8043;49.388;12.128;2023-10-09T22:49:00;15.35;;;4.03;;
15889;SDS011;8043;49.388;12.128;2023-10-09T22:54:04;6.78;;;3.62;;
15889;SDS011;8043;49.388;12.128;2023-10-09T22:59:09;8.90;;;3.95;;
15889;SDS011;8043;49.388;12.128;2023-10-09T23:04:13;9.00;;;3.70;;
15889;SDS011;8043;49.388;12.128;2023-10-09T23:09:17;12.88;;;4.67;;
15889;SDS011;8043;49.388;12.128;2023-10-09T23:14:24;11.50;;;4.28;;
15889;SDS011;8043;49.388;12.128;2023-10-09T23:19:30;8.05;;;3.30;;
15889;SDS011;8043;49.388;12.128;2023-10-09T23:24:50;27.58;;;3.90;;
15889;SDS011;8043;49.388;12.128;2023-10-09T23:29:54;15.00;;;3.63;;
15889;SDS011;8043;49.388;12.128;2023-10-09T23:34:58;13.88;;;3.87;;
15889;SDS011;8043;49.388;12.128;2023-10-09T23:40:00;11.22;;;3.60;;
15889;SDS011;8043;49.388;12.128;2023-10-09T23:45:08;7.37;;;3.77;;
15889;SDS011;8043;49.388;12.128;2023-10-09T23:50:13;9.10;;;3.40;;
15889;SDS011;8043;49.388;12.128;2023-10-09T23:55:18;11.57;;;3.37;;
